sensor_id;sensor_type;location;lat;lon;timestamp;P1;durP1;ratioP1;P2;durP2;ratioP2
42006;SDS011;27696;42.704;23.304;2022-07-21T00:00:36;4.10;;;2.88;;
42006;SDS011;27696;42.704;23.304;2022-07-21T00:03:01;6.18;;;3.17;;
42006;SDS011;27696;42.704;23.304;2022-07-21T00:05:27;6.95;;;2.90;;
42006;SDS011;27696;42.704;23.304;2022-07-21T00:07:53;6.88;;;3.33;;
42006;SDS011;27696;42.704;23.304;2022-07-21T00:10:20;3.08;;;2.75;;
42006;SDS011;27696;42.704;23.304;2022-07-21T00:12:47;9.23;;;3.40;;
42006;SDS011;27696;42.704;23.304;2022-07-21T00:15:14;4.10;;;2.80;;
42006;SDS011;27696;42.704;23.304;2022-07-21T00:17:41;5.50;;;3.00;;
42006;SDS011;27696;42.704;23.304;2022-07-21T00:20:07;4.80;;;2.80;;
42006;SDS011;27696;42.704;23.304;2022-07-21T00:22:33;4.78;;;2.83;;
42006;SDS011;27696;42.704;23.304;2022-07-21T00:24:59;4.85;;;3.03;;
42006;SDS011;27696;42.704;23.304;2022-07-21T00:27:25;3.85;;;2.40;;
42006;SDS011;27696;42.704;23.304;2022-07-21T00:29:51;5.68;;;2.17;;
42006;SDS011;27696;42.704;23.304;2022-07-21T00:32:17;4.13;;;2.30;;
42006;SDS011;27696;42.704;23.304;2022-07-21T00:34:43;3.78;;;2.42;;
42006;SDS011;27696;42.704;23.304;2022-07-21T00:37:09;3.53;;;2.70;;
42006;SDS011;27696;42.704;23.304;2022-07-21T00:39:35;6.05;;;2.55;;
42006;SDS011;27696;42.704;23.304;2022-07-21T00:42:01;3.40;;;2.50;;
42006;SDS011;27696;42.704;23.304;2022-07-21T00:44:27;2.70;;;2.38;;
42006;SDS011;27696;42.704;23.304;2022-07-21T00:46:53;3.70;;;2.50;;
42006;SDS011;27696;42.704;23.304;2022-07-21T00:49:19;2.40;;;2.20;;
42006;SDS011;27696;42.704;23.304;2022-07-21T00:51:45;5.63;;;2.38;;
42006;SDS011;27696;42.704;23.304;2022-07-21T00:54:12;2.92;;;2.38;;
42006;SDS011;27696;42.704;23.304;2022-07-21T00:56:39;12.48;;;3.22;;
42006;SDS011;27696;42.704;23.304;2022-07-21T00:59:05;7.28;;;2.60;;
42006;SDS011;27696;42.704;23.304;2022-07-21T01:01:30;7.85;;;2.58;;
42006;SDS011;27696;42.704;23.304;2022-07-21T01:03:56;9.93;;;3.10;;
42006;SDS011;27696;42.704;23.304;2022-07-21T01:06:23;9.82;;;3.00;;
42006;SDS011;27696;42.704;23.304;2022-07-21T01:08:50;8.55;;;2.65;;
42006;SDS011;27696;42.704;23.304;2022-07-21T01:11:16;5.85;;;2.80;;
42006;SDS011;27696;42.704;23.304;2022-07-21T01:13:42;10.93;;;3.00;;
42006;SDS011;27696;42.704;23.304;2022-07-21T01:16:08;3.03;;;2.72;;
42006;SDS011;27696;42.704;23.304;2022-07-21T01:18:34;6.32;;;2.80;;
42006;SDS011;27696;42.704;23.304;2022-07-21T01:21:02;7.30;;;3.05;;
42006;SDS011;27696;42.704;23.304;2022-07-21T01:23:31;4.25;;;2.95;;
42006;SDS011;27696;42.704;23.304;2022-07-21T01:25:58;4.00;;;2.83;;
42006;SDS011;27696;42.704;23.304;2022-07-21T01:28:23;25.83;;;3.83;;
42006;SDS011;27696;42.704;23.304;2022-07-21T01:30:49;10.48;;;2.90;;
42006;SDS011;27696;42.704;23.304;2022-07-21T01:33:15;6.55;;;2.90;;
42006;SDS011;27696;42.704;23.304;2022-07-21T01:35:41;4.35;;;2.70;;
42006;SDS011;27696;42.704;23.304;2022-07-21T01:38:06;5.38;;;2.83;;
42006;SDS011;27696;42.704;23.304;2022-07-21T01:40:57;4.20;;;2.47;;
42006;SDS011;27696;42.704;23.304;2022-07-21T01:43:41;3.75;;;2.47;;
42006;SDS011;27696;42.704;23.304;2022-07-21T01:46:09;4.43;;;2.55;;
42006;SDS011;27696;42.704;23.304;2022-07-21T01:48:40;2.67;;;2.47;;
42006;SDS011;27696;42.704;23.304;2022-07-21T01:51:06;3.50;;;2.63;;
42006;SDS011;27696;42.704;23.304;2022-07-21T01:53:32;11.65;;;3.03;;
42006;SDS011;27696;42.704;23.304;2022-07-21T01:55:58;4.80;;;3.05;;
42006;SDS011;27696;42.704;23.304;2022-07-21T01:58:23;21.98;;;4.30;;
42006;SDS011;27696;42.704;23.304;2022-07-21T02:00:49;7.88;;;3.60;;
42006;SDS011;27696;42.704;23.304;2022-07-21T02:03:14;5.00;;;3.70;;
42006;SDS011;27696;42.704;23.304;2022-07-21T02:05:40;9.05;;;4.63;;
42006;SDS011;27696;42.704;23.304;2022-07-21T02:08:05;7.85;;;4.72;;
42006;SDS011;27696;42.704;23.304;2022-07-21T02:10:31;10.60;;;4.38;;
42006;SDS011;27696;42.704;23.304;2022-07-21T02:12:56;7.03;;;6.32;;
42006;SDS011;27696;42.704;23.304;2022-07-21T02:15:22;8.32;;;5.18;;
42006;SDS011;27696;42.704;23.304;2022-07-21T02:17:47;7.50;;;4.95;;
42006;SDS011;27696;42.704;23.304;2022-07-21T02:20:12;9.25;;;4.22;;
42006;SDS011;27696;42.704;23.304;2022-07-21T02:22:38;12.43;;;4.10;;
42006;SDS011;27696;42.704;23.304;2022-07-21T02:25:03;6.55;;;3.72;;
42006;SDS011;27696;42.704;23.304;2022-07-21T02:27:29;8.27;;;3.35;;
42006;SDS011;27696;42.704;23.304;2022-07-21T02:29:55;5.97;;;2.95;;
42006;SDS011;27696;42.704;23.304;2022-07-21T02:32:20;10.45;;;3.03;;
42006;SDS011;27696;42.704;23.304;2022-07-21T02:34:46;23.15;;;4.28;;
42006;SDS011;27696;42.704;23.304;2022-07-21T02:37:11;13.18;;;3.42;;
42006;SDS011;27696;42.704;23.304;2022-07-21T02:39:36;9.90;;;3.67;;
42006;SDS011;27696;42.704;23.304;2022-07-21T02:42:02;14.07;;;4.13;;
42006;SDS011;27696;42.704;23.304;2022-07-21T02:44:28;8.93;;;3.42;;
42006;SDS011;27696;42.704;23.304;2022-07-21T02:46:55;6.10;;;3.10;;
42006;SDS011;27696;42.704;23.304;2022-07-21T02:49:20;5.90;;;2.70;;
42006;SDS011;27696;42.704;23.304;2022-07-21T02:51:46;6.85;;;2.85;;
42006;SDS011;27696;42.704;23.304;2022-07-21T02:54:11;3.72;;;2.60;;
42006;SDS011;27696;42.704;23.304;2022-07-21T02:56:37;3.03;;;2.70;;
42006;SDS011;27696;42.704;23.304;2022-07-21T02:59:03;4.15;;;2.60;;
42006;SDS011;27696;42.704;23.304;2022-07-21T03:01:29;7.00;;;2.97;;
42006;SDS011;27696;42.704;23.304;2022-07-21T03:03:54;17.05;;;4.22;;
42006;SDS011;27696;42.704;23.304;2022-07-21T03:06:20;7.10;;;3.00;;
42006;SDS011;27696;42.704;23.304;2022-07-21T03:08:45;4.70;;;2.70;;
42006;SDS011;27696;42.704;23.304;2022-07-21T03:11:11;5.22;;;2.55;;
42006;SDS011;27696;42.704;23.304;2022-07-21T03:13:36;7.15;;;2.97;;
42006;SDS011;27696;42.704;23.304;2022-07-21T03:16:02;3.55;;;2.78;;
42006;SDS011;27696;42.704;23.304;2022-07-21T03:18:27;8.00;;;2.60;;
42006;SDS011;27696;42.704;23.304;2022-07-21T03:20:53;6.45;;;2.83;;
42006;SDS011;27696;42.704;23.304;2022-07-21T03:23:18;6.22;;;2.97;;
42006;SDS011;27696;42.704;23.304;2022-07-21T03:25:43;3.53;;;2.80;;
42006;SDS011;27696;42.704;23.304;2022-07-21T03:28:09;4.07;;;2.80;;
42006;SDS011;27696;42.704;23.304;2022-07-21T03:30:35;16.00;;;3.25;;
42006;SDS011;27696;42.704;23.304;2022-07-21T03:33:01;12.45;;;3.13;;
42006;SDS011;27696;42.704;23.304;2022-07-21T03:35:27;10.10;;;3.00;;
42006;SDS011;27696;42.704;23.304;2022-07-21T03:37:53;9.80;;;3.30;;
42006;SDS011;27696;42.704;23.304;2022-07-21T03:40:22;5.60;;;3.03;;
42006;SDS011;27696;42.704;23.304;2022-07-21T03:42:54;9.95;;;3.30;;
42006;SDS011;27696;42.704;23.304;2022-07-21T03:45:21;14.30;;;4.05;;
42006;SDS011;27696;42.704;23.304;2022-07-21T03:47:47;5.90;;;3.67;;
42006;SDS011;27696;42.704;23.304;2022-07-21T03:50:12;5.65;;;3.33;;
42006;SDS011;27696;42.704;23.304;2022-07-21T03:52:39;9.88;;;3.42;;
42006;SDS011;27696;42.704;23.304;2022-07-21T03:55:05;14.55;;;3.38;;
42006;SDS011;27696;42.704;23.304;2022-07-21T03:57:34;10.15;;;3.35;;
42006;SDS011;27696;42.704;23.304;2022-07-21T04:00:02;12.13;;;4.03;;
42006;SDS011;27696;42.704;23.304;2022-07-21T04:02:28;8.48;;;3.72;;
42006;SDS011;27696;42.704;23.304;2022-07-21T04:04:54;10.90;;;4.00;;
42006;SDS011;27696;42.704;23.304;2022-07-21T04:07:19;6.53;;;2.92;;
42006;SDS011;27696;42.704;23.304;2022-07-21T04:09:45;7.93;;;2.90;;
42006;SDS011;27696;42.704;23.304;2022-07-21T04:12:10;7.18;;;3.50;;
42006;SDS011;27696;42.704;23.304;2022-07-21T04:14:36;7.65;;;3.75;;
42006;SDS011;27696;42.704;23.304;2022-07-21T04:17:01;7.03;;;3.78;;
42006;SDS011;27696;42.704;23.304;2022-07-21T04:19:27;6.63;;;3.60;;
42006;SDS011;27696;42.704;23.304;2022-07-21T04:21:53;6.47;;;3.60;;
42006;SDS011;27696;42.704;23.304;2022-07-21T04:24:18;8.60;;;3.65;;
42006;SDS011;27696;42.704;23.304;2022-07-21T04:26:44;6.22;;;3.42;;
42006;SDS011;27696;42.704;23.304;2022-07-21T04:29:09;5.75;;;3.72;;
42006;SDS011;27696;42.704;23.304;2022-07-21T04:31:34;7.78;;;3.58;;
42006;SDS011;27696;42.704;23.304;2022-07-21T04:34:00;6.75;;;3.65;;
42006;SDS011;27696;42.704;23.304;2022-07-21T04:36:25;7.03;;;3.47;;
42006;SDS011;27696;42.704;23.304;2022-07-21T04:38:51;6.78;;;3.20;;
42006;SDS011;27696;42.704;23.304;2022-07-21T04:41:16;9.80;;;4.00;;
42006;SDS011;27696;42.704;23.304;2022-07-21T04:43:41;10.00;;;3.72;;
42006;SDS011;27696;42.704;23.304;2022-07-21T04:46:07;9.38;;;4.82;;
42006;SDS011;27696;42.704;23.304;2022-07-21T04:48:32;8.07;;;3.75;;
42006;SDS011;27696;42.704;23.304;2022-07-21T04:50:58;6.97;;;3.75;;
42006;SDS011;27696;42.704;23.304;2022-07-21T04:53:23;5.50;;;3.83;;
42006;SDS011;27696;42.704;23.304;2022-07-21T04:55:49;7.82;;;4.07;;
42006;SDS011;27696;42.704;23.304;2022-07-21T04:58:15;16.23;;;4.03;;
42006;SDS011;27696;42.704;23.304;2022-07-21T05:00:40;24.10;;;4.70;;
42006;SDS011;27696;42.704;23.304;2022-07-21T05:03:06;13.27;;;4.03;;
42006;SDS011;27696;42.704;23.304;2022-07-21T05:05:31;12.63;;;3.60;;
42006;SDS011;27696;42.704;23.304;2022-07-21T05:07:57;13.30;;;3.83;;
42006;SDS011;27696;42.704;23.304;2022-07-21T05:10:22;10.90;;;4.05;;
42006;SDS011;27696;42.704;23.304;2022-07-21T05:12:48;11.05;;;3.58;;
42006;SDS011;27696;42.704;23.304;2022-07-21T05:15:13;10.45;;;3.97;;
42006;SDS011;27696;42.704;23.304;2022-07-21T05:17:39;9.18;;;4.10;;
42006;SDS011;27696;42.704;23.304;2022-07-21T05:20:06;9.40;;;4.22;;
42006;SDS011;27696;42.704;23.304;2022-07-21T05:22:32;37.45;;;5.38;;
42006;SDS011;27696;42.704;23.304;2022-07-21T05:24:57;19.58;;;5.47;;
42006;SDS011;27696;42.704;23.304;2022-07-21T05:27:23;14.32;;;4.32;;
42006;SDS011;27696;42.704;23.304;2022-07-21T05:29:48;9.60;;;4.65;;
42006;SDS011;27696;42.704;23.304;2022-07-21T05:32:14;10.52;;;4.20;;
42006;SDS011;27696;42.704;23.304;2022-07-21T05:34:40;11.00;;;4.72;;
42006;SDS011;27696;42.704;23.304;2022-07-21T05:37:06;12.90;;;4.60;;
42006;SDS011;27696;42.704;23.304;2022-07-21T05:39:31;10.23;;;3.78;;
42006;SDS011;27696;42.704;23.304;2022-07-21T05:41:56;10.90;;;4.07;;
42006;SDS011;27696;42.704;23.304;2022-07-21T05:44:22;12.25;;;4.15;;
42006;SDS011;27696;42.704;23.304;2022-07-21T05:46:49;10.23;;;4.30;;
42006;SDS011;27696;42.704;23.304;2022-07-21T05:49:14;13.02;;;4.22;;
42006;SDS011;27696;42.704;23.304;2022-07-21T05:51:40;25.35;;;5.43;;
42006;SDS011;27696;42.704;23.304;2022-07-21T05:54:05;31.27;;;4.90;;
42006;SDS011;27696;42.704;23.304;2022-07-21T05:56:30;20.25;;;4.32;;
42006;SDS011;27696;42.704;23.304;2022-07-21T05:58:56;22.63;;;4.57;;
42006;SDS011;27696;42.704;23.304;2022-07-21T06:01:21;17.55;;;4.90;;
42006;SDS011;27696;42.704;23.304;2022-07-21T06:03:48;11.68;;;4.47;;
42006;SDS011;27696;42.704;23.304;2022-07-21T06:06:15;14.50;;;4.57;;
42006;SDS011;27696;42.704;23.304;2022-07-21T06:08:41;11.45;;;4.22;;
42006;SDS011;27696;42.704;23.304;2022-07-21T06:11:08;9.90;;;4.65;;
42006;SDS011;27696;42.704;23.304;2022-07-21T06:13:35;14.07;;;4.70;;
42006;SDS011;27696;42.704;23.304;2022-07-21T06:16:01;17.95;;;4.78;;
42006;SDS011;27696;42.704;23.304;2022-07-21T06:18:27;18.42;;;5.18;;
42006;SDS011;27696;42.704;23.304;2022-07-21T06:20:53;13.48;;;4.93;;
42006;SDS011;27696;42.704;23.304;2022-07-21T06:23:18;13.20;;;4.85;;
42006;SDS011;27696;42.704;23.304;2022-07-21T06:25:44;14.35;;;4.90;;
42006;SDS011;27696;42.704;23.304;2022-07-21T06:28:10;11.20;;;4.90;;
42006;SDS011;27696;42.704;23.304;2022-07-21T06:30:35;9.13;;;4.65;;
42006;SDS011;27696;42.704;23.304;2022-07-21T06:33:01;10.35;;;4.85;;
42006;SDS011;27696;42.704;23.304;2022-07-21T06:35:26;11.23;;;4.70;;
42006;SDS011;27696;42.704;23.304;2022-07-21T06:37:52;14.02;;;4.75;;
42006;SDS011;27696;42.704;23.304;2022-07-21T06:40:18;15.65;;;5.32;;
42006;SDS011;27696;42.704;23.304;2022-07-21T06:42:43;12.48;;;4.82;;
42006;SDS011;27696;42.704;23.304;2022-07-21T06:45:09;9.98;;;5.43;;
42006;SDS011;27696;42.704;23.304;2022-07-21T06:47:34;9.82;;;5.47;;
42006;SDS011;27696;42.704;23.304;2022-07-21T06:50:00;9.57;;;4.82;;
42006;SDS011;27696;42.704;23.304;2022-07-21T06:52:30;15.57;;;5.57;;
42006;SDS011;27696;42.704;23.304;2022-07-21T06:54:57;14.68;;;5.10;;
42006;SDS011;27696;42.704;23.304;2022-07-21T06:57:23;10.30;;;4.93;;
42006;SDS011;27696;42.704;23.304;2022-07-21T06:59:49;14.05;;;8.90;;
42006;SDS011;27696;42.704;23.304;2022-07-21T07:02:14;11.63;;;5.28;;
42006;SDS011;27696;42.704;23.304;2022-07-21T07:04:40;9.30;;;4.68;;
42006;SDS011;27696;42.704;23.304;2022-07-21T07:07:05;11.82;;;4.93;;
42006;SDS011;27696;42.704;23.304;2022-07-21T07:09:31;8.27;;;4.38;;
42006;SDS011;27696;42.704;23.304;2022-07-21T07:11:56;8.02;;;4.93;;
42006;SDS011;27696;42.704;23.304;2022-07-21T07:14:34;9.95;;;4.00;;
42006;SDS011;27696;42.704;23.304;2022-07-21T07:17:01;8.55;;;4.38;;
42006;SDS011;27696;42.704;23.304;2022-07-21T07:19:28;10.93;;;4.07;;
42006;SDS011;27696;42.704;23.304;2022-07-21T07:21:54;7.55;;;3.63;;
42006;SDS011;27696;42.704;23.304;2022-07-21T07:24:20;9.00;;;3.65;;
42006;SDS011;27696;42.704;23.304;2022-07-21T07:26:46;8.88;;;3.60;;
42006;SDS011;27696;42.704;23.304;2022-07-21T07:29:11;6.35;;;3.85;;
42006;SDS011;27696;42.704;23.304;2022-07-21T07:31:37;6.97;;;3.67;;
42006;SDS011;27696;42.704;23.304;2022-07-21T07:34:04;5.38;;;3.70;;
42006;SDS011;27696;42.704;23.304;2022-07-21T07:36:29;8.98;;;3.03;;
42006;SDS011;27696;42.704;23.304;2022-07-21T07:38:56;10.10;;;2.75;;
42006;SDS011;27696;42.704;23.304;2022-07-21T07:41:22;9.52;;;2.97;;
42006;SDS011;27696;42.704;23.304;2022-07-21T07:43:49;9.32;;;3.00;;
42006;SDS011;27696;42.704;23.304;2022-07-21T07:46:16;6.07;;;2.90;;
42006;SDS011;27696;42.704;23.304;2022-07-21T07:48:43;5.30;;;3.08;;
42006;SDS011;27696;42.704;23.304;2022-07-21T07:51:09;5.25;;;2.50;;
42006;SDS011;27696;42.704;23.304;2022-07-21T07:53:35;5.80;;;2.72;;
42006;SDS011;27696;42.704;23.304;2022-07-21T07:56:03;5.60;;;3.20;;
42006;SDS011;27696;42.704;23.304;2022-07-21T07:58:30;6.70;;;2.90;;
42006;SDS011;27696;42.704;23.304;2022-07-21T08:00:55;9.55;;;3.10;;
42006;SDS011;27696;42.704;23.304;2022-07-21T08:03:21;9.38;;;3.35;;
42006;SDS011;27696;42.704;23.304;2022-07-21T08:05:48;4.60;;;2.95;;
42006;SDS011;27696;42.704;23.304;2022-07-21T08:08:14;11.07;;;2.80;;
42006;SDS011;27696;42.704;23.304;2022-07-21T08:10:40;5.63;;;3.10;;
42006;SDS011;27696;42.704;23.304;2022-07-21T08:13:05;9.07;;;2.65;;
42006;SDS011;27696;42.704;23.304;2022-07-21T08:15:33;6.57;;;2.60;;
42006;SDS011;27696;42.704;23.304;2022-07-21T08:17:59;6.30;;;2.60;;
42006;SDS011;27696;42.704;23.304;2022-07-21T08:20:25;7.00;;;2.40;;
42006;SDS011;27696;42.704;23.304;2022-07-21T08:22:50;5.28;;;2.60;;
42006;SDS011;27696;42.704;23.304;2022-07-21T08:25:16;4.78;;;3.35;;
42006;SDS011;27696;42.704;23.304;2022-07-21T08:27:41;8.73;;;2.80;;
42006;SDS011;27696;42.704;23.304;2022-07-21T08:30:07;3.92;;;2.75;;
42006;SDS011;27696;42.704;23.304;2022-07-21T08:32:34;7.47;;;2.38;;
42006;SDS011;27696;42.704;23.304;2022-07-21T08:34:59;6.25;;;2.63;;
42006;SDS011;27696;42.704;23.304;2022-07-21T08:37:25;2.60;;;2.40;;
42006;SDS011;27696;42.704;23.304;2022-07-21T08:39:50;4.28;;;2.40;;
42006;SDS011;27696;42.704;23.304;2022-07-21T08:42:16;4.88;;;2.60;;
42006;SDS011;27696;42.704;23.304;2022-07-21T08:44:41;2.60;;;2.38;;
42006;SDS011;27696;42.704;23.304;2022-07-21T08:47:08;8.15;;;2.70;;
42006;SDS011;27696;42.704;23.304;2022-07-21T08:49:34;6.57;;;2.25;;
42006;SDS011;27696;42.704;23.304;2022-07-21T08:52:01;7.13;;;2.70;;
42006;SDS011;27696;42.704;23.304;2022-07-21T08:54:27;6.05;;;2.65;;
42006;SDS011;27696;42.704;23.304;2022-07-21T08:56:52;2.85;;;2.65;;
42006;SDS011;27696;42.704;23.304;2022-07-21T08:59:19;3.88;;;2.42;;
42006;SDS011;27696;42.704;23.304;2022-07-21T09:01:45;8.38;;;2.80;;
42006;SDS011;27696;42.704;23.304;2022-07-21T09:04:23;6.25;;;2.90;;
42006;SDS011;27696;42.704;23.304;2022-07-21T09:06:59;3.85;;;2.72;;
42006;SDS011;27696;42.704;23.304;2022-07-21T09:09:30;3.75;;;2.60;;
42006;SDS011;27696;42.704;23.304;2022-07-21T09:11:57;4.88;;;3.08;;
42006;SDS011;27696;42.704;23.304;2022-07-21T09:14:25;6.03;;;2.90;;
42006;SDS011;27696;42.704;23.304;2022-07-21T09:16:52;3.60;;;2.65;;
42006;SDS011;27696;42.704;23.304;2022-07-21T09:19:24;8.50;;;2.90;;
42006;SDS011;27696;42.704;23.304;2022-07-21T09:21:53;8.73;;;2.63;;
42006;SDS011;27696;42.704;23.304;2022-07-21T09:24:31;7.70;;;2.97;;
42006;SDS011;27696;42.704;23.304;2022-07-21T09:29:45;3.60;;;2.70;;
42006;SDS011;27696;42.704;23.304;2022-07-21T09:32:25;5.28;;;2.40;;
42006;SDS011;27696;42.704;23.304;2022-07-21T09:34:53;4.35;;;2.63;;
42006;SDS011;27696;42.704;23.304;2022-07-21T09:37:21;3.45;;;2.72;;
42006;SDS011;27696;42.704;23.304;2022-07-21T09:39:49;3.28;;;2.53;;
42006;SDS011;27696;42.704;23.304;2022-07-21T09:42:20;3.78;;;2.60;;
42006;SDS011;27696;42.704;23.304;2022-07-21T09:44:49;5.30;;;2.85;;
42006;SDS011;27696;42.704;23.304;2022-07-21T09:47:18;4.15;;;2.63;;
42006;SDS011;27696;42.704;23.304;2022-07-21T09:49:44;5.53;;;2.55;;
42006;SDS011;27696;42.704;23.304;2022-07-21T09:52:29;4.90;;;2.83;;
42006;SDS011;27696;42.704;23.304;2022-07-21T09:54:57;7.50;;;2.70;;
42006;SDS011;27696;42.704;23.304;2022-07-21T09:57:25;3.15;;;2.70;;
42006;SDS011;27696;42.704;23.304;2022-07-21T09:59:51;2.90;;;2.60;;
42006;SDS011;27696;42.704;23.304;2022-07-21T10:02:18;3.05;;;2.75;;
42006;SDS011;27696;42.704;23.304;2022-07-21T10:04:47;5.32;;;2.40;;
42006;SDS011;27696;42.704;23.304;2022-07-21T10:07:16;6.20;;;3.00;;
42006;SDS011;27696;42.704;23.304;2022-07-21T10:09:43;2.70;;;2.50;;
42006;SDS011;27696;42.704;23.304;2022-07-21T10:12:08;2.90;;;2.33;;
42006;SDS011;27696;42.704;23.304;2022-07-21T10:14:34;3.30;;;2.38;;
42006;SDS011;27696;42.704;23.304;2022-07-21T10:17:01;4.53;;;2.53;;
42006;SDS011;27696;42.704;23.304;2022-07-21T10:19:31;4.43;;;2.80;;
42006;SDS011;27696;42.704;23.304;2022-07-21T10:22:04;4.32;;;2.53;;
42006;SDS011;27696;42.704;23.304;2022-07-21T10:24:48;5.65;;;2.38;;
42006;SDS011;27696;42.704;23.304;2022-07-21T10:27:14;3.80;;;2.47;;
42006;SDS011;27696;42.704;23.304;2022-07-21T10:29:59;3.42;;;2.70;;
42006;SDS011;27696;42.704;23.304;2022-07-21T10:32:30;5.15;;;2.38;;
42006;SDS011;27696;42.704;23.304;2022-07-21T10:35:02;4.00;;;2.30;;
42006;SDS011;27696;42.704;23.304;2022-07-21T10:37:48;4.47;;;2.40;;
42006;SDS011;27696;42.704;23.304;2022-07-21T10:47:54;3.97;;;2.40;;
42006;SDS011;27696;42.704;23.304;2022-07-21T10:53:16;5.85;;;2.60;;
42006;SDS011;27696;42.704;23.304;2022-07-21T10:55:49;3.80;;;2.83;;
42006;SDS011;27696;42.704;23.304;2022-07-21T10:58:22;3.53;;;2.67;;
42006;SDS011;27696;42.704;23.304;2022-07-21T11:04:05;2.80;;;2.47;;
42006;SDS011;27696;42.704;23.304;2022-07-21T11:12:03;3.22;;;2.42;;
42006;SDS011;27696;42.704;23.304;2022-07-21T11:14:36;5.05;;;2.47;;
42006;SDS011;27696;42.704;23.304;2022-07-21T11:17:03;3.30;;;2.50;;
42006;SDS011;27696;42.704;23.304;2022-07-21T11:19:36;3.97;;;2.38;;
42006;SDS011;27696;42.704;23.304;2022-07-21T11:24:30;5.78;;;4.60;;
42006;SDS011;27696;42.704;23.304;2022-07-21T11:27:04;3.63;;;2.40;;
42006;SDS011;27696;42.704;23.304;2022-07-21T11:29:32;3.97;;;2.90;;
42006;SDS011;27696;42.704;23.304;2022-07-21T11:31:59;3.35;;;2.50;;
42006;SDS011;27696;42.704;23.304;2022-07-21T11:37:04;3.40;;;2.00;;
42006;SDS011;27696;42.704;23.304;2022-07-21T11:39:29;4.28;;;2.72;;
42006;SDS011;27696;42.704;23.304;2022-07-21T11:42:00;3.28;;;2.60;;
42006;SDS011;27696;42.704;23.304;2022-07-21T11:44:27;3.85;;;2.65;;
42006;SDS011;27696;42.704;23.304;2022-07-21T11:46:54;5.68;;;2.40;;
42006;SDS011;27696;42.704;23.304;2022-07-21T11:49:21;4.18;;;2.60;;
42006;SDS011;27696;42.704;23.304;2022-07-21T11:51:48;7.95;;;2.78;;
42006;SDS011;27696;42.704;23.304;2022-07-21T11:56:47;7.25;;;2.75;;
42006;SDS011;27696;42.704;23.304;2022-07-21T11:59:14;5.30;;;2.30;;
42006;SDS011;27696;42.704;23.304;2022-07-21T12:01:56;6.32;;;3.10;;
42006;SDS011;27696;42.704;23.304;2022-07-21T12:04:30;4.28;;;2.88;;
42006;SDS011;27696;42.704;23.304;2022-07-21T12:06:56;4.20;;;2.70;;
42006;SDS011;27696;42.704;23.304;2022-07-21T12:09:22;4.50;;;2.70;;
42006;SDS011;27696;42.704;23.304;2022-07-21T12:11:48;3.67;;;2.70;;
42006;SDS011;27696;42.704;23.304;2022-07-21T12:17:39;4.20;;;2.92;;
42006;SDS011;27696;42.704;23.304;2022-07-21T12:20:06;4.57;;;2.97;;
42006;SDS011;27696;42.704;23.304;2022-07-21T12:22:40;6.05;;;2.80;;
42006;SDS011;27696;42.704;23.304;2022-07-21T12:25:12;6.63;;;2.70;;
42006;SDS011;27696;42.704;23.304;2022-07-21T12:27:40;4.38;;;2.30;;
42006;SDS011;27696;42.704;23.304;2022-07-21T12:30:08;2.83;;;2.58;;
42006;SDS011;27696;42.704;23.304;2022-07-21T12:32:40;2.95;;;2.60;;
42006;SDS011;27696;42.704;23.304;2022-07-21T12:35:18;4.85;;;2.80;;
42006;SDS011;27696;42.704;23.304;2022-07-21T12:40:38;13.35;;;2.95;;
42006;SDS011;27696;42.704;23.304;2022-07-21T12:43:10;2.92;;;2.30;;
42006;SDS011;27696;42.704;23.304;2022-07-21T12:45:50;5.95;;;2.33;;
42006;SDS011;27696;42.704;23.304;2022-07-21T12:51:03;3.75;;;2.35;;
42006;SDS011;27696;42.704;23.304;2022-07-21T12:53:49;3.33;;;2.25;;
42006;SDS011;27696;42.704;23.304;2022-07-21T12:56:17;2.28;;;2.08;;
42006;SDS011;27696;42.704;23.304;2022-07-21T12:58:46;4.60;;;2.30;;
42006;SDS011;27696;42.704;23.304;2022-07-21T13:01:12;2.63;;;2.40;;
42006;SDS011;27696;42.704;23.304;2022-07-21T13:03:39;3.03;;;2.65;;
42006;SDS011;27696;42.704;23.304;2022-07-21T13:06:05;6.68;;;2.50;;
42006;SDS011;27696;42.704;23.304;2022-07-21T13:08:32;2.83;;;2.13;;
42006;SDS011;27696;42.704;23.304;2022-07-21T13:10:58;4.85;;;2.38;;
42006;SDS011;27696;42.704;23.304;2022-07-21T13:13:25;7.78;;;2.65;;
42006;SDS011;27696;42.704;23.304;2022-07-21T13:15:51;8.48;;;2.55;;
42006;SDS011;27696;42.704;23.304;2022-07-21T13:18:17;5.20;;;2.83;;
42006;SDS011;27696;42.704;23.304;2022-07-21T13:20:42;5.13;;;2.40;;
42006;SDS011;27696;42.704;23.304;2022-07-21T13:23:08;10.80;;;2.70;;
42006;SDS011;27696;42.704;23.304;2022-07-21T13:25:34;11.20;;;2.47;;
42006;SDS011;27696;42.704;23.304;2022-07-21T13:28:00;6.88;;;3.45;;
42006;SDS011;27696;42.704;23.304;2022-07-21T13:30:25;4.90;;;3.25;;
42006;SDS011;27696;42.704;23.304;2022-07-21T13:32:51;5.07;;;3.47;;
42006;SDS011;27696;42.704;23.304;2022-07-21T13:35:16;5.90;;;2.50;;
42006;SDS011;27696;42.704;23.304;2022-07-21T13:37:42;7.80;;;3.05;;
42006;SDS011;27696;42.704;23.304;2022-07-21T13:40:08;6.53;;;2.60;;
42006;SDS011;27696;42.704;23.304;2022-07-21T13:42:33;4.70;;;2.55;;
42006;SDS011;27696;42.704;23.304;2022-07-21T13:44:59;4.95;;;2.60;;
42006;SDS011;27696;42.704;23.304;2022-07-21T13:47:25;4.88;;;3.00;;
42006;SDS011;27696;42.704;23.304;2022-07-21T13:49:50;6.28;;;2.55;;
42006;SDS011;27696;42.704;23.304;2022-07-21T13:52:15;5.53;;;2.40;;
42006;SDS011;27696;42.704;23.304;2022-07-21T13:54:41;4.20;;;2.53;;
42006;SDS011;27696;42.704;23.304;2022-07-21T13:57:06;5.40;;;2.50;;
42006;SDS011;27696;42.704;23.304;2022-07-21T13:59:32;6.40;;;2.45;;
42006;SDS011;27696;42.704;23.304;2022-07-21T14:01:57;4.78;;;2.47;;
42006;SDS011;27696;42.704;23.304;2022-07-21T14:04:23;5.28;;;2.80;;
42006;SDS011;27696;42.704;23.304;2022-07-21T14:06:48;7.82;;;2.53;;
42006;SDS011;27696;42.704;23.304;2022-07-21T14:09:14;11.10;;;2.55;;
42006;SDS011;27696;42.704;23.304;2022-07-21T14:11:41;6.18;;;2.85;;
42006;SDS011;27696;42.704;23.304;2022-07-21T14:14:08;5.68;;;2.78;;
42006;SDS011;27696;42.704;23.304;2022-07-21T14:16:33;9.07;;;3.75;;
42006;SDS011;27696;42.704;23.304;2022-07-21T14:18:59;3.17;;;2.33;;
42006;SDS011;27696;42.704;23.304;2022-07-21T14:21:25;4.60;;;2.63;;
42006;SDS011;27696;42.704;23.304;2022-07-21T14:23:51;3.85;;;2.33;;
42006;SDS011;27696;42.704;23.304;2022-07-21T14:26:36;5.65;;;2.50;;
42006;SDS011;27696;42.704;23.304;2022-07-21T14:29:03;7.10;;;2.40;;
42006;SDS011;27696;42.704;23.304;2022-07-21T14:31:30;4.25;;;2.65;;
42006;SDS011;27696;42.704;23.304;2022-07-21T14:33:55;6.88;;;2.75;;
42006;SDS011;27696;42.704;23.304;2022-07-21T14:36:21;4.95;;;2.42;;
42006;SDS011;27696;42.704;23.304;2022-07-21T14:38:46;6.72;;;2.40;;
42006;SDS011;27696;42.704;23.304;2022-07-21T14:41:11;5.72;;;3.88;;
42006;SDS011;27696;42.704;23.304;2022-07-21T14:43:37;6.90;;;2.28;;
42006;SDS011;27696;42.704;23.304;2022-07-21T14:46:02;7.07;;;2.72;;
42006;SDS011;27696;42.704;23.304;2022-07-21T14:48:28;8.20;;;3.40;;
42006;SDS011;27696;42.704;23.304;2022-07-21T14:50:53;8.77;;;2.80;;
42006;SDS011;27696;42.704;23.304;2022-07-21T14:53:19;4.88;;;2.50;;
42006;SDS011;27696;42.704;23.304;2022-07-21T14:55:44;5.38;;;2.53;;
42006;SDS011;27696;42.704;23.304;2022-07-21T14:58:10;5.22;;;2.75;;
42006;SDS011;27696;42.704;23.304;2022-07-21T15:00:35;5.13;;;2.72;;
42006;SDS011;27696;42.704;23.304;2022-07-21T15:03:01;3.15;;;2.35;;
42006;SDS011;27696;42.704;23.304;2022-07-21T15:05:26;4.13;;;2.45;;
42006;SDS011;27696;42.704;23.304;2022-07-21T15:07:52;4.72;;;2.78;;